EW9996 Weather Reports


time (UTC)temp
F
wind
direction
speed
knots
gust
knots
rain 1hr
in
rain 24hr
in
rain mn
in
humidity
%
barometer
mb
20260507144552 57 0 0.0 0.0 0.00 0.00 0.00 46 1011.1
20260507143054 54 0 0.0 0.0 0.00 0.00 0.00 48 1011.3
20260507141604 53 0 0.0 0.0 0.00 0.00 0.00 51 1011.6
20260507140051 53 0 0.0 0.0 0.00 0.00 0.00 51 1011.8
20260507134556 51 0 0.0 0.0 0.00 0.01 0.00 55 1011.9
20260507133055 50 0 0.0 0.0 0.00 0.01 0.00 57 1011.9
20260507131601 48 0 0.0 0.0 0.00 0.01 0.00 59 1012.1
20260507130108 48 0 0.0 0.0 0.00 0.01 0.00 58 1012.3
20260507124555 47 0 0.0 0.0 0.00 0.02 0.00 65 1012.5
20260507123053 45 0 0.0 0.0 0.00 0.02 0.00 67 1012.5
20260507121601 43 0 0.0 0.0 0.00 0.02 0.00 76 1012.5
20260507120057 41 0 0.0 0.0 0.00 0.02 0.00 81 1012.4
20260507114604 40 0 0.0 0.0 0.00 0.07 0.00 85 1012.4
20260507113051 39 0 0.0 0.0 0.00 0.07 0.00 85 1012.0
20260507111545 39 0 0.0 0.0 0.00 0.07 0.00 85 1012.0
20260507104547 39 0 0.0 0.0 0.00 0.10 0.00 84 1011.7
20260507103054 40 0 0.0 0.0 0.00 0.10 0.00 81 1011.5
20260507101603 41 0 0.0 0.0 0.00 0.10 0.00 79 1011.4
20260507100054 41 0 0.0 0.0 0.00 0.10 0.00 79 1011.4
20260507094549 42 0 0.0 0.0 0.00 0.11 0.00 77 1011.4
20260507093056 43 0 0.0 0.0 0.00 0.11 0.00 75 1011.3
20260507091556 43 0 0.0 0.0 0.00 0.11 0.00 72 1011.4
20260507090054 44 0 0.0 0.0 0.00 0.11 0.00 71 1011.2
20260507084551 45 0 0.0 0.0 0.00 0.11 0.00 69 1011.2
20260507083051 46 0 0.0 0.0 0.00 0.11 0.00 64 1011.1
20260507081554 46 0 0.0 0.0 0.00 0.11 0.00 62 1011.3
20260507080053 47 0 0.0 0.0 0.00 0.11 0.00 61 1011.3
20260507074605 47 0 0.0 0.0 0.00 0.11 0.00 61 1011.4
20260507073054 47 0 0.0 0.0 0.00 0.11 0.00 60 1011.3
20260507071550 47 0 0.0 0.0 0.00 0.11 0.00 60 1011.3
20260507070053 47 0 0.0 0.0 0.00 0.11 0.00 59 1011.4
20260507064549 48 0 0.0 0.0 0.00 0.11 0.00 59 1011.5
20260507063053 48 0 0.0 0.0 0.00 0.11 0.00 57 1011.6
20260507061550 48 0 0.0 0.0 0.00 0.11 0.00 56 1011.6
20260507060053 49 0 0.0 0.0 0.00 0.11 0.00 57 1011.7
20260507054623 49 0 0.0 0.0 0.00 0.11 0.00 58 1011.7
20260507053052 49 0 0.0 0.0 0.00 0.11 0.00 58 1011.7
20260507051548 49 0 0.0 0.0 0.00 0.11 0.00 59 1011.8
20260507050057 49 0 0.0 0.0 0.00 0.11 0.00 62 1011.9
20260507044556 49 0 0.0 0.0 0.00 0.11 0.00 60 1011.9
20260507043056 50 0 0.0 0.0 0.00 0.11 0.00 59 1011.9
20260507041559 50 0 0.0 0.0 0.00 0.11 0.00 59 1012.0
20260507040050 50 0 0.0 0.0 0.00 0.11 0.00 63 1011.9
20260507034557 50 0 0.0 0.0 0.00 0.11 0.11 64 1011.5
20260507033056 50 0 0.0 0.0 0.00 0.11 0.11 64 1011.3
20260507031603 51 0 0.0 0.0 0.00 0.11 0.11 68 1011.4
20260507030055 51 0 0.0 0.0 0.00 0.11 0.11 69 1011.6
20260507024552 52 0 0.0 0.0 0.00 0.11 0.11 71 1011.3
20260507023102 52 0 0.0 0.0 0.00 0.11 0.11 71 1010.9
20260507021545 52 0 0.0 0.0 0.00 0.11 0.11 72 1010.5
20260507020049 52 0 0.0 0.0 0.00 0.11 0.11 75 1010.7
20260507014601 52 0 0.0 0.0 0.00 0.11 0.11 78 1010.4
20260507013050 52 0 0.0 0.0 0.00 0.11 0.11 76 1010.7
20260507011549 52 0 0.0 0.0 0.00 0.11 0.11 77 1010.9
20260507010049 52 0 0.0 0.0 0.00 0.11 0.11 78 1010.8
20260507004551 52 0 0.0 0.0 0.00 0.11 0.11 77 1011.3
20260507003050 53 0 0.0 0.9 0.00 0.11 0.11 76 1010.7
20260507001555 52 0 0.0 0.0 0.00 0.11 0.11 78 1010.9
20260507000052 53 0 0.0 0.0 0.00 0.11 0.11 78 1010.5
20260506234548 53 0 0.0 0.0 0.00 0.11 0.11 76 1010.2
20260506233109 53 0 0.0 0.0 0.00 0.11 0.11 78 1010.0
20260506231550 53 0 0.0 0.0 0.00 0.11 0.11 78 1009.6
20260506230051 53 0 0.0 0.0 0.00 0.11 0.11 79 1009.7
20260506224556 54 0 0.0 0.0 0.00 0.11 0.11 79 1009.7
20260506223049 54 0 0.0 0.0 0.00 0.11 0.11 79 1009.6
20260506221550 54 0 0.0 0.0 0.00 0.11 0.11 79 1009.2
20260506220048 54 0 0.0 0.0 0.00 0.11 0.11 80 1009.0
20260506214551 55 0 0.0 0.0 0.00 0.11 0.11 80 1009.0
20260506213110 55 0 0.0 0.0 0.00 0.11 0.11 80 1008.8
20260506211549 55 0 0.0 0.0 0.00 0.11 0.11 81 1008.6
20260506210055 54 0 0.0 0.0 0.00 0.11 0.11 83 1008.6
20260506204551 55 0 0.0 0.0 0.00 0.11 0.11 82 1008.2
20260506203049 55 0 0.0 0.0 0.00 0.11 0.11 83 1008.2
20260506201550 56 0 0.0 0.0 0.00 0.11 0.11 82 1008.2
20260506200051 56 0 0.0 0.0 0.00 0.11 0.11 81 1008.1
20260506194556 56 0 0.0 0.0 0.00 0.11 0.11 82 1008.0
20260506193055 56 0 0.0 0.0 0.00 0.11 0.11 83 1007.8
20260506191552 57 0 0.0 0.0 0.00 0.11 0.11 82 1007.7
20260506190050 59 0 0.0 0.0 0.00 0.11 0.11 82 1007.2
20260506184550 60 0 0.0 0.0 0.00 0.11 0.11 80 1007.2
20260506183049 61 0 0.0 0.0 0.00 0.11 0.11 79 1006.9
20260506181549 61 0 0.0 0.0 0.00 0.11 0.11 81 1006.7
20260506174547 60 0 0.0 0.0 0.00 0.11 0.11 83 1007.0
20260506173053 60 0 0.0 0.0 0.00 0.11 0.11 84 1006.7
20260506171558 60 0 0.0 0.0 0.00 0.11 0.11 85 1006.4
20260506170104 60 0 0.0 0.0 0.00 0.11 0.11 85 1006.2
20260506164547 60 0 0.0 0.0 0.00 0.11 0.11 85 1006.2
20260506163106 60 0 0.0 0.0 0.00 0.11 0.11 85 1006.2
20260506161550 59 0 0.0 0.0 0.00 0.11 0.11 85 1006.2
20260506160050 59 0 0.0 0.0 0.00 0.11 0.11 85 1006.1
20260506154610 59 0 0.0 0.0 0.00 0.11 0.11 85 1006.2
20260506153059 59 0 0.0 0.0 0.00 0.11 0.11 85 1006.1
20260506151555 59 0 0.0 0.0 0.00 0.11 0.11 85 1005.9
20260506150050 60 0 0.0 0.0 0.00 0.11 0.11 85 1005.6